createdAt,value
2019-01-04T00:00:05.153Z,1033.30
2019-01-04T00:01:05.152Z,1033.33
2019-01-04T00:02:05.145Z,1033.31
2019-01-04T00:03:05.132Z,1033.38
2019-01-04T00:04:05.137Z,1033.38
2019-01-04T00:05:05.180Z,1033.34
2019-01-04T00:06:05.127Z,1033.33
2019-01-04T00:07:05.123Z,1033.39
2019-01-04T00:08:05.116Z,1033.39
2019-01-04T00:09:05.792Z,1033.41
2019-01-04T00:10:05.087Z,1033.36
2019-01-04T00:11:05.083Z,1033.31
2019-01-04T00:12:05.081Z,1033.35
2019-01-04T00:13:05.083Z,1033.33
2019-01-04T00:14:05.065Z,1033.36
2019-01-04T00:15:05.062Z,1033.31
2019-01-04T00:16:05.055Z,1033.30
2019-01-04T00:17:05.045Z,1033.32
2019-01-04T00:18:05.050Z,1033.29
2019-01-04T00:19:05.232Z,1033.31
2019-01-04T00:20:05.037Z,1033.28
2019-01-04T00:21:05.235Z,1033.27
2019-01-04T00:22:05.015Z,1033.24
2019-01-04T00:23:05.010Z,1033.25
2019-01-04T00:24:04.997Z,1033.28
2019-01-04T00:25:05.002Z,1033.27
2019-01-04T00:26:05.188Z,1033.30
2019-01-04T00:27:04.978Z,1033.31
2019-01-04T00:28:04.973Z,1033.30
2019-01-04T00:29:04.980Z,1033.31
2019-01-04T00:30:05.161Z,1033.34
2019-01-04T00:31:04.955Z,1033.29
2019-01-04T00:32:04.954Z,1033.32
2019-01-04T00:33:04.957Z,1033.37
2019-01-04T00:34:04.952Z,1033.37
2019-01-04T00:35:04.928Z,1033.44
2019-01-04T00:36:04.922Z,1033.43
2019-01-04T00:37:04.921Z,1033.46
2019-01-04T00:38:04.907Z,1033.50
2019-01-04T00:39:04.905Z,1033.53
2019-01-04T00:40:04.900Z,1033.50
2019-01-04T00:41:04.918Z,1033.47
2019-01-04T00:42:04.882Z,1033.48
2019-01-04T00:43:04.886Z,1033.47
2019-01-04T00:44:04.874Z,1033.46
2019-01-04T00:45:05.068Z,1033.44
2019-01-04T00:46:04.864Z,1033.43
2019-01-04T00:47:05.059Z,1033.45
2019-01-04T00:48:04.872Z,1033.40
2019-01-04T00:49:04.867Z,1033.38
2019-01-04T00:50:05.047Z,1033.43
2019-01-04T00:51:04.829Z,1033.41
2019-01-04T00:52:04.822Z,1033.40
2019-01-04T00:53:04.815Z,1033.37
2019-01-04T00:54:04.837Z,1033.35
2019-01-04T00:55:04.828Z,1033.29
2019-01-04T00:56:04.795Z,1033.29
2019-01-04T00:57:04.804Z,1033.29
2019-01-04T00:58:05.011Z,1033.28
2019-01-04T00:59:04.775Z,1033.28
2019-01-04T01:00:04.778Z,1033.32
2019-01-04T01:01:04.768Z,1033.33
2019-01-04T01:02:04.760Z,1033.32
2019-01-04T01:03:04.765Z,1033.32
2019-01-04T01:04:04.764Z,1033.37
2019-01-04T01:05:04.755Z,1033.44
2019-01-04T01:06:04.759Z,1033.45
2019-01-04T01:07:04.739Z,1033.42
2019-01-04T01:08:04.931Z,1033.45
2019-01-04T01:09:04.718Z,1033.41
2019-01-04T01:10:04.723Z,1033.37
2019-01-04T01:11:04.698Z,1033.36
2019-01-04T01:12:04.712Z,1033.35
2019-01-04T01:13:04.688Z,1033.34
2019-01-04T01:14:04.685Z,1033.31
2019-01-04T01:15:04.681Z,1033.30
2019-01-04T01:16:04.686Z,1033.34
2019-01-04T01:17:04.688Z,1033.36
2019-01-04T01:18:04.665Z,1033.31
2019-01-04T01:19:04.658Z,1033.32
2019-01-04T01:20:04.648Z,1033.32
2019-01-04T01:21:04.655Z,1033.35
2019-01-04T01:22:04.645Z,1033.35
2019-01-04T01:23:04.627Z,1033.34
2019-01-04T01:24:04.643Z,1033.33
2019-01-04T01:25:04.617Z,1033.33
2019-01-04T01:26:04.854Z,1033.33
2019-01-04T01:27:04.609Z,1033.30
2019-01-04T01:28:04.596Z,1033.29
2019-01-04T01:29:04.601Z,1033.28
2019-01-04T01:30:04.588Z,1033.24
2019-01-04T01:31:04.579Z,1033.29
2019-01-04T01:32:04.780Z,1033.28
2019-01-04T01:33:04.578Z,1033.33
2019-01-04T01:34:04.566Z,1033.31
2019-01-04T01:35:04.568Z,1033.32
2019-01-04T01:36:04.559Z,1033.30
2019-01-04T01:37:04.556Z,1033.27
2019-01-04T01:38:04.559Z,1033.28
2019-01-04T01:39:04.544Z,1033.26
2019-01-04T01:40:04.522Z,1033.27
2019-01-04T01:41:04.518Z,1033.28
2019-01-04T01:42:04.524Z,1033.30
2019-01-04T01:43:04.532Z,1033.30
2019-01-04T01:44:04.499Z,1033.32
2019-01-04T01:45:04.493Z,1033.36
2019-01-04T01:46:04.494Z,1033.39
2019-01-04T01:47:04.483Z,1033.41
2019-01-04T01:48:04.486Z,1033.40
2019-01-04T01:49:04.474Z,1033.45
2019-01-04T01:50:04.481Z,1033.49
2019-01-04T01:51:04.456Z,1033.51
2019-01-04T01:52:04.467Z,1033.55
2019-01-04T01:53:04.653Z,1033.53
2019-01-04T01:54:04.646Z,1033.56
2019-01-04T01:55:04.453Z,1033.53
2019-01-04T01:56:04.436Z,1033.55
2019-01-04T01:57:04.429Z,1033.56
2019-01-04T01:58:04.416Z,1033.55
2019-01-04T01:59:04.421Z,1033.50
2019-01-04T02:00:04.428Z,1033.51
2019-01-04T02:01:04.603Z,1033.49
2019-01-04T02:02:04.393Z,1033.51
2019-01-04T02:03:04.594Z,1033.51
2019-01-04T02:04:04.418Z,1033.52
2019-01-04T02:05:04.383Z,1033.47
2019-01-04T02:06:04.376Z,1033.51
2019-01-04T02:07:04.379Z,1033.50
2019-01-04T02:08:04.359Z,1033.53
2019-01-04T02:09:07.546Z,1033.54
2019-01-04T02:10:04.357Z,1033.56
2019-01-04T02:11:04.351Z,1033.57
2019-01-04T02:12:04.353Z,1033.58
2019-01-04T02:13:04.339Z,1033.61
2019-01-04T02:14:04.368Z,1033.63
2019-01-04T02:15:04.325Z,1033.71
2019-01-04T02:16:04.320Z,1033.67
2019-01-04T02:17:04.334Z,1033.74
2019-01-04T02:18:04.298Z,1033.73
2019-01-04T02:19:04.315Z,1033.75
2019-01-04T02:20:04.295Z,1033.73
2019-01-04T02:21:04.283Z,1033.70
2019-01-04T02:22:04.273Z,1033.70
2019-01-04T02:23:04.271Z,1033.72
2019-01-04T02:24:04.269Z,1033.70
2019-01-04T02:25:04.482Z,1033.68
2019-01-04T02:26:04.464Z,1033.68
2019-01-04T02:27:04.261Z,1033.65
2019-01-04T02:28:04.444Z,1033.67
2019-01-04T02:29:04.242Z,1033.63
2019-01-04T02:30:04.228Z,1033.66
2019-01-04T02:31:04.242Z,1033.64
2019-01-04T02:32:04.222Z,1033.59
2019-01-04T02:33:04.420Z,1033.58
2019-01-04T02:34:04.206Z,1033.59
2019-01-04T02:35:04.206Z,1033.57
2019-01-04T02:36:04.221Z,1033.54
2019-01-04T02:37:04.191Z,1033.53
2019-01-04T02:38:04.189Z,1033.55
2019-01-04T02:39:04.183Z,1033.51
2019-01-04T02:40:04.188Z,1033.53
2019-01-04T02:41:04.162Z,1033.51
2019-01-04T02:42:04.175Z,1033.47
2019-01-04T02:43:04.168Z,1033.43
2019-01-04T02:44:04.170Z,1033.47
2019-01-04T02:45:04.160Z,1033.42
2019-01-04T02:46:04.162Z,1033.42
2019-01-04T02:47:04.142Z,1033.46
2019-01-04T02:48:04.129Z,1033.48
2019-01-04T02:49:04.125Z,1033.47
2019-01-04T02:50:04.121Z,1033.48
2019-01-04T02:51:04.110Z,1033.43
2019-01-04T02:52:04.107Z,1033.42
2019-01-04T02:53:04.507Z,1033.42
2019-01-04T02:54:04.106Z,1033.47
2019-01-04T02:55:04.093Z,1033.54
2019-01-04T02:56:04.098Z,1033.55
2019-01-04T02:57:04.086Z,1033.62
2019-01-04T02:58:04.073Z,1033.61
2019-01-04T02:59:04.284Z,1033.58
2019-01-04T03:00:04.067Z,1033.53
2019-01-04T03:01:04.063Z,1033.50
2019-01-04T03:02:04.048Z,1033.52
2019-01-04T03:03:04.048Z,1033.48
2019-01-04T03:04:04.041Z,1033.46
2019-01-04T03:05:04.039Z,1033.43
2019-01-04T03:06:04.029Z,1033.41
2019-01-04T03:07:04.020Z,1033.37
2019-01-04T03:08:04.004Z,1033.42
2019-01-04T03:09:04.016Z,1033.39
2019-01-04T03:10:03.992Z,1033.42
2019-01-04T03:11:03.998Z,1033.45
2019-01-04T03:12:03.996Z,1033.46
2019-01-04T03:13:04.010Z,1033.47
2019-01-04T03:14:03.982Z,1033.45
2019-01-04T03:15:03.965Z,1033.42
2019-01-04T03:16:03.971Z,1033.41
2019-01-04T03:17:03.956Z,1033.44
2019-01-04T03:18:03.956Z,1033.41
2019-01-04T03:19:03.939Z,1033.44
2019-01-04T03:20:03.939Z,1033.42
2019-01-04T03:21:03.943Z,1033.41
2019-01-04T03:22:03.943Z,1033.37
2019-01-04T03:23:04.125Z,1033.37
2019-01-04T03:24:04.169Z,1033.34
2019-01-04T03:25:03.921Z,1033.32
2019-01-04T03:26:03.922Z,1033.40
2019-01-04T03:27:03.898Z,1033.34
2019-01-04T03:28:03.896Z,1033.44
2019-01-04T03:29:03.883Z,1033.41
2019-01-04T03:30:03.891Z,1033.36
2019-01-04T03:31:03.889Z,1033.32
2019-01-04T03:32:03.887Z,1033.33
2019-01-04T03:33:03.882Z,1033.33
2019-01-04T03:34:03.860Z,1033.32
2019-01-04T03:35:03.854Z,1033.28
2019-01-04T03:36:03.878Z,1033.34
2019-01-04T03:37:03.842Z,1033.33
2019-01-04T03:38:03.847Z,1033.33
2019-01-04T03:39:03.826Z,1033.30
2019-01-04T03:40:03.827Z,1033.28
2019-01-04T03:41:03.820Z,1033.25
2019-01-04T03:42:03.813Z,1033.23
2019-01-04T03:43:03.808Z,1033.28
2019-01-04T03:44:03.804Z,1033.27
2019-01-04T03:45:03.793Z,1033.27
2019-01-04T03:46:03.787Z,1033.24
2019-01-04T03:47:03.789Z,1033.26
2019-01-04T03:48:03.775Z,1033.29
2019-01-04T03:49:03.778Z,1033.30
2019-01-04T03:50:03.770Z,1033.30
2019-01-04T03:51:03.965Z,1033.30
2019-01-04T03:52:03.759Z,1033.29
2019-01-04T03:53:03.755Z,1033.24
2019-01-04T03:54:03.743Z,1033.25
2019-01-04T03:55:03.939Z,1033.19
2019-01-04T03:56:03.936Z,1033.18
2019-01-04T03:57:03.723Z,1033.16
2019-01-04T03:58:03.716Z,1033.15
2019-01-04T03:59:03.739Z,1033.14
2019-01-04T04:00:03.715Z,1033.14
2019-01-04T04:01:03.721Z,1033.17
2019-01-04T04:02:03.702Z,1033.14
2019-01-04T04:03:03.695Z,1033.14
2019-01-04T04:04:03.693Z,1033.15
2019-01-04T04:05:03.685Z,1033.14
2019-01-04T04:06:03.679Z,1033.16
2019-01-04T04:07:03.672Z,1033.14
2019-01-04T04:08:03.675Z,1033.19
2019-01-04T04:09:03.669Z,1033.12
2019-01-04T04:10:03.660Z,1033.10
2019-01-04T04:11:03.669Z,1033.07
2019-01-04T04:12:03.634Z,1033.07
2019-01-04T04:13:03.634Z,1033.04
2019-01-04T04:14:03.645Z,1033.02
2019-01-04T04:15:03.622Z,1033.03
2019-01-04T04:16:03.631Z,1033.00
2019-01-04T04:17:03.629Z,1032.98
2019-01-04T04:18:03.606Z,1033.01
2019-01-04T04:19:03.610Z,1033.00
2019-01-04T04:20:03.597Z,1033.05
2019-01-04T04:21:03.597Z,1033.00
2019-01-04T04:22:03.591Z,1033.00
2019-01-04T04:23:03.576Z,1033.06
2019-01-04T04:24:03.591Z,1033.04
2019-01-04T04:25:03.561Z,1033.08
2019-01-04T04:26:03.574Z,1033.07
2019-01-04T04:27:03.549Z,1033.04
2019-01-04T04:28:03.566Z,1032.98
2019-01-04T04:29:03.749Z,1032.93
2019-01-04T04:30:03.552Z,1032.93
2019-01-04T04:31:03.531Z,1032.99
2019-01-04T04:32:03.521Z,1032.99
2019-01-04T04:33:03.533Z,1032.99
2019-01-04T04:34:03.570Z,1033.04
2019-01-04T04:35:03.509Z,1033.01
2019-01-04T04:36:03.503Z,1032.98
2019-01-04T04:37:03.527Z,1032.96
2019-01-04T04:38:03.506Z,1032.99
2019-01-04T04:39:03.501Z,1033.04
2019-01-04T04:40:03.489Z,1032.99
2019-01-04T04:41:03.474Z,1033.04
2019-01-04T04:42:03.467Z,1033.06
2019-01-04T04:43:03.461Z,1033.05
2019-01-04T04:44:03.471Z,1033.10
2019-01-04T04:45:03.456Z,1033.15
2019-01-04T04:46:03.455Z,1033.09
2019-01-04T04:47:03.441Z,1033.04
2019-01-04T04:48:03.433Z,1033.09
2019-01-04T04:49:03.437Z,1033.07
2019-01-04T04:50:03.435Z,1033.07
2019-01-04T04:51:03.421Z,1033.07
2019-01-04T04:52:03.428Z,1033.05
2019-01-04T04:53:03.419Z,1033.03
2019-01-04T04:54:03.396Z,1033.06
2019-01-04T04:55:03.412Z,1033.05
2019-01-04T04:56:03.386Z,1033.04
2019-01-04T04:57:03.389Z,1033.06
2019-01-04T04:58:03.381Z,1033.06
2019-01-04T04:59:03.371Z,1033.10
2019-01-04T05:00:03.381Z,1033.05
2019-01-04T05:01:03.383Z,1033.08
2019-01-04T05:02:03.358Z,1033.09
2019-01-04T05:03:03.349Z,1033.11
2019-01-04T05:04:03.345Z,1033.10
2019-01-04T05:05:03.360Z,1033.06
2019-01-04T05:06:03.330Z,1033.05
2019-01-04T05:07:03.338Z,1033.06
2019-01-04T05:08:03.319Z,1033.05
2019-01-04T05:09:03.522Z,1033.06
2019-01-04T05:10:03.314Z,1033.02
2019-01-04T05:11:03.322Z,1032.98
2019-01-04T05:12:03.303Z,1032.97
2019-01-04T05:13:03.302Z,1032.96
2019-01-04T05:14:03.292Z,1032.98
2019-01-04T05:15:03.284Z,1032.99
2019-01-04T05:16:03.284Z,1032.96
2019-01-04T05:17:03.291Z,1032.95
2019-01-04T05:18:03.265Z,1032.90
2019-01-04T05:19:03.263Z,1032.91
2019-01-04T05:20:03.261Z,1032.94
2019-01-04T05:21:03.253Z,1032.90
2019-01-04T05:22:03.261Z,1032.90
2019-01-04T05:23:03.253Z,1032.90
2019-01-04T05:24:03.234Z,1032.86
2019-01-04T05:25:03.232Z,1032.88
2019-01-04T05:26:03.221Z,1032.87
2019-01-04T05:27:03.229Z,1032.93
2019-01-04T05:28:03.444Z,1032.93
2019-01-04T05:29:03.225Z,1032.96
2019-01-04T05:30:03.224Z,1033.04
2019-01-04T05:31:03.201Z,1032.99
2019-01-04T05:32:03.210Z,1033.07
2019-01-04T05:33:03.186Z,1033.07
2019-01-04T05:34:03.186Z,1033.08
2019-01-04T05:35:03.186Z,1033.09
2019-01-04T05:36:03.179Z,1033.09
2019-01-04T05:37:03.191Z,1033.07
2019-01-04T05:38:03.162Z,1033.13
2019-01-04T05:39:03.158Z,1033.09
2019-01-04T05:40:03.153Z,1033.08
2019-01-04T05:41:03.152Z,1033.07
2019-01-04T05:42:03.147Z,1033.08
2019-01-04T05:43:03.151Z,1033.02
2019-01-04T05:44:03.132Z,1032.98
2019-01-04T05:45:03.153Z,1033.06
2019-01-04T05:46:03.142Z,1033.01
2019-01-04T05:47:03.134Z,1033.05
2019-01-04T05:48:03.141Z,1033.07
2019-01-04T05:49:03.122Z,1033.08
2019-01-04T05:50:03.104Z,1033.05
2019-01-04T05:51:03.104Z,1033.07
2019-01-04T05:52:03.100Z,1033.08
2019-01-04T05:53:03.083Z,1033.06
2019-01-04T05:54:03.087Z,1033.05
2019-01-04T05:55:03.093Z,1033.09
2019-01-04T05:56:03.079Z,1033.06
2019-01-04T05:57:03.062Z,1033.11
2019-01-04T05:58:03.055Z,1033.10
2019-01-04T05:59:03.077Z,1033.08
2019-01-04T06:00:03.042Z,1033.10
2019-01-04T06:01:03.244Z,1033.04
2019-01-04T06:02:03.053Z,1033.04
2019-01-04T06:03:03.030Z,1032.97
2019-01-04T06:04:03.033Z,1032.99
2019-01-04T06:05:03.027Z,1032.93
2019-01-04T06:06:03.012Z,1032.92
2019-01-04T06:07:03.205Z,1032.93
2019-01-04T06:08:03.027Z,1032.90
2019-01-04T06:09:02.994Z,1032.94
2019-01-04T06:10:02.988Z,1032.95
2019-01-04T06:11:03.000Z,1032.93
2019-01-04T06:12:03.010Z,1032.88
2019-01-04T06:13:02.974Z,1032.86
2019-01-04T06:14:02.984Z,1032.84
2019-01-04T06:15:02.985Z,1032.87
2019-01-04T06:16:02.975Z,1032.90
2019-01-04T06:17:02.977Z,1032.92
2019-01-04T06:18:02.946Z,1032.94
2019-01-04T06:19:02.939Z,1032.89
2019-01-04T06:20:02.935Z,1032.87
2019-01-04T06:21:02.934Z,1032.81
2019-01-04T06:22:02.930Z,1032.81
2019-01-04T06:23:02.948Z,1032.90
2019-01-04T06:24:03.124Z,1032.85
2019-01-04T06:25:02.918Z,1032.87
2019-01-04T06:26:02.910Z,1032.84
2019-01-04T06:27:03.095Z,1032.85
2019-01-04T06:28:02.886Z,1032.87
2019-01-04T06:29:02.882Z,1032.86
2019-01-04T06:30:02.881Z,1032.85
2019-01-04T06:31:02.873Z,1032.84
2019-01-04T06:32:03.073Z,1032.84
2019-01-04T06:33:02.867Z,1032.85
2019-01-04T06:34:02.874Z,1032.80
2019-01-04T06:35:02.860Z,1032.77
2019-01-04T06:36:02.860Z,1032.75
2019-01-04T06:37:03.051Z,1032.74
2019-01-04T06:38:02.842Z,1032.73
2019-01-04T06:39:02.840Z,1032.74
2019-01-04T06:40:02.843Z,1032.69
2019-01-04T06:41:02.839Z,1032.66
2019-01-04T06:42:02.822Z,1032.65
2019-01-04T06:43:02.821Z,1032.61
2019-01-04T06:44:03.101Z,1032.62
2019-01-04T06:45:02.827Z,1032.65
2019-01-04T06:46:02.814Z,1032.68
2019-01-04T06:47:02.786Z,1032.66
2019-01-04T06:48:02.784Z,1032.67
2019-01-04T06:49:02.779Z,1032.68
2019-01-04T06:50:02.772Z,1032.64
2019-01-04T06:51:02.987Z,1032.63
2019-01-04T06:52:02.780Z,1032.60
2019-01-04T06:53:02.756Z,1032.57
2019-01-04T06:54:02.755Z,1032.59
2019-01-04T06:55:02.758Z,1032.60
2019-01-04T06:56:02.741Z,1032.66
2019-01-04T06:57:02.947Z,1032.75
2019-01-04T06:58:02.730Z,1032.81
2019-01-04T06:59:02.720Z,1032.88
2019-01-04T07:00:02.735Z,1032.87
2019-01-04T07:01:02.714Z,1032.83
2019-01-04T07:02:02.918Z,1032.84
2019-01-04T07:03:02.702Z,1032.86
2019-01-04T07:04:02.696Z,1032.85
2019-01-04T07:05:02.694Z,1032.86
2019-01-04T07:06:02.684Z,1032.85
2019-01-04T07:07:02.696Z,1032.83
2019-01-04T07:08:02.680Z,1032.82
2019-01-04T07:09:02.701Z,1032.84
2019-01-04T07:10:02.664Z,1032.88
2019-01-04T07:11:02.663Z,1032.88
2019-01-04T07:12:02.659Z,1032.87
2019-01-04T07:13:02.656Z,1032.86
2019-01-04T07:14:02.661Z,1032.85
2019-01-04T07:15:02.648Z,1032.87
2019-01-04T07:16:02.633Z,1032.88
2019-01-04T07:17:02.653Z,1032.93
2019-01-04T07:18:02.628Z,1032.90
2019-01-04T07:19:02.618Z,1032.91
2019-01-04T07:20:02.608Z,1032.89
2019-01-04T07:21:02.616Z,1032.90
2019-01-04T07:22:02.634Z,1032.91
2019-01-04T07:23:02.611Z,1032.91
2019-01-04T07:24:02.609Z,1032.90
2019-01-04T07:25:02.589Z,1032.86
2019-01-04T07:26:02.581Z,1032.84
2019-01-04T07:27:02.812Z,1032.86
2019-01-04T07:28:02.575Z,1032.83
2019-01-04T07:29:02.585Z,1032.83
2019-01-04T07:30:02.566Z,1032.87
2019-01-04T07:31:02.550Z,1032.86
2019-01-04T07:32:02.569Z,1032.90
2019-01-04T07:33:02.549Z,1032.93
2019-01-04T07:34:02.547Z,1032.95
2019-01-04T07:35:02.546Z,1032.95
2019-01-04T07:36:02.533Z,1032.91
2019-01-04T07:37:02.536Z,1032.90
2019-01-04T07:38:02.512Z,1032.93
2019-01-04T07:39:02.515Z,1032.92
2019-01-04T07:40:02.517Z,1032.91
2019-01-04T07:41:02.513Z,1032.91
2019-01-04T07:42:02.513Z,1032.90
2019-01-04T07:43:02.493Z,1032.90
2019-01-04T07:44:02.501Z,1032.88
2019-01-04T07:45:02.500Z,1032.92
2019-01-04T07:46:02.494Z,1032.94
2019-01-04T07:47:02.501Z,1032.94
2019-01-04T07:48:02.476Z,1032.94
2019-01-04T07:49:02.473Z,1032.98
2019-01-04T07:50:02.450Z,1032.98
2019-01-04T07:51:02.490Z,1032.96
2019-01-04T07:52:02.461Z,1033.04
2019-01-04T07:53:02.442Z,1033.00
2019-01-04T07:54:02.440Z,1033.02
2019-01-04T07:55:02.437Z,1033.04
2019-01-04T07:56:02.432Z,1033.02
2019-01-04T07:57:02.421Z,1033.01
2019-01-04T07:58:02.611Z,1032.97
2019-01-04T07:59:02.410Z,1032.99
2019-01-04T08:00:02.607Z,1033.00
2019-01-04T08:01:02.398Z,1032.99
2019-01-04T08:02:02.588Z,1033.01
2019-01-04T08:03:02.378Z,1032.99
2019-01-04T08:04:02.376Z,1032.98
2019-01-04T08:05:02.384Z,1033.00
2019-01-04T08:06:02.367Z,1032.99
2019-01-04T08:07:02.366Z,1033.01
2019-01-04T08:08:02.355Z,1033.04
2019-01-04T08:09:02.355Z,1033.12
2019-01-04T08:10:02.349Z,1033.11
2019-01-04T08:11:02.337Z,1033.09
2019-01-04T08:12:02.334Z,1033.09
2019-01-04T08:13:02.330Z,1033.13
2019-01-04T08:14:02.524Z,1033.14
2019-01-04T08:15:02.324Z,1033.08
2019-01-04T08:16:02.316Z,1033.05
2019-01-04T08:17:02.304Z,1033.03
2019-01-04T08:18:02.298Z,1032.95
2019-01-04T08:19:02.300Z,1032.96
2019-01-04T08:20:02.287Z,1032.96
2019-01-04T08:21:02.283Z,1032.95
2019-01-04T08:22:02.290Z,1032.91
2019-01-04T08:23:02.276Z,1032.97
2019-01-04T08:24:02.292Z,1032.94
2019-01-04T08:25:02.283Z,1032.96
2019-01-04T08:26:02.252Z,1033.01
2019-01-04T08:27:02.261Z,1033.00
2019-01-04T08:28:02.265Z,1033.00
2019-01-04T08:29:02.257Z,1032.96
2019-01-04T08:30:02.240Z,1032.98
2019-01-04T08:31:02.232Z,1032.98
2019-01-04T08:32:02.226Z,1032.98
2019-01-04T08:33:02.228Z,1032.95
2019-01-04T08:34:02.224Z,1033.01
2019-01-04T08:35:02.205Z,1033.00
2019-01-04T08:36:02.207Z,1033.03
2019-01-04T08:37:02.195Z,1033.04
2019-01-04T08:38:02.197Z,1033.03
2019-01-04T08:39:02.199Z,1032.99
2019-01-04T08:40:02.186Z,1033.04
2019-01-04T08:41:02.177Z,1033.04
2019-01-04T08:42:02.191Z,1033.02
2019-01-04T08:43:02.169Z,1032.99
2019-01-04T08:44:02.148Z,1033.00
2019-01-04T08:45:02.152Z,1033.01
2019-01-04T08:46:02.143Z,1032.99
2019-01-04T08:47:02.137Z,1032.98
2019-01-04T08:48:02.127Z,1032.99
2019-01-04T08:49:02.128Z,1033.06
2019-01-04T08:50:02.125Z,1033.01
2019-01-04T08:51:02.106Z,1032.96
2019-01-04T08:52:02.104Z,1032.94
2019-01-04T08:53:02.101Z,1032.96
2019-01-04T08:54:02.114Z,1032.98
2019-01-04T08:55:02.091Z,1032.93
2019-01-04T08:56:02.085Z,1032.97
2019-01-04T08:57:02.110Z,1032.95
2019-01-04T08:58:02.278Z,1032.90
2019-01-04T08:59:02.078Z,1032.93
2019-01-04T09:00:02.068Z,1032.92
2019-01-04T09:01:02.051Z,1032.90
2019-01-04T09:02:02.046Z,1032.93
2019-01-04T09:03:02.056Z,1032.94
2019-01-04T09:04:02.069Z,1032.91
2019-01-04T09:05:02.057Z,1032.94
2019-01-04T09:06:02.055Z,1032.92
2019-01-04T09:07:02.015Z,1032.96
2019-01-04T09:08:02.023Z,1032.94
2019-01-04T09:09:02.007Z,1032.90
2019-01-04T09:10:02.034Z,1032.88
2019-01-04T09:11:01.996Z,1032.81
2019-01-04T09:12:02.004Z,1032.78
2019-01-04T09:13:01.983Z,1032.74
2019-01-04T09:14:01.993Z,1032.72
2019-01-04T09:15:01.971Z,1032.70
2019-01-04T09:16:01.981Z,1032.71
2019-01-04T09:17:01.969Z,1032.69
2019-01-04T09:18:01.957Z,1032.66
2019-01-04T09:19:01.967Z,1032.66
2019-01-04T09:20:01.961Z,1032.64
2019-01-04T09:21:01.934Z,1032.62
2019-01-04T09:22:01.942Z,1032.64
2019-01-04T09:23:01.989Z,1032.61
2019-01-04T09:24:02.134Z,1032.65
2019-01-04T09:25:01.947Z,1032.66
2019-01-04T09:26:01.928Z,1032.69
2019-01-04T09:27:01.909Z,1032.68
2019-01-04T09:28:01.896Z,1032.68
2019-01-04T09:29:01.903Z,1032.70
2019-01-04T09:30:01.892Z,1032.72
2019-01-04T09:31:01.889Z,1032.75
2019-01-04T09:32:01.880Z,1032.71
2019-01-04T09:33:01.886Z,1032.73
2019-01-04T09:34:01.865Z,1032.68
2019-01-04T09:35:01.873Z,1032.64
2019-01-04T09:36:01.866Z,1032.68
2019-01-04T09:37:01.854Z,1032.63
2019-01-04T09:38:01.857Z,1032.63
2019-01-04T09:39:03.374Z,1032.60
2019-01-04T09:40:01.858Z,1032.54
2019-01-04T09:41:01.834Z,1032.60
2019-01-04T09:42:01.831Z,1032.55
2019-01-04T09:43:01.809Z,1032.55
2019-01-04T09:44:01.808Z,1032.54
2019-01-04T09:45:01.843Z,1032.52
2019-01-04T09:46:01.806Z,1032.51
2019-01-04T09:47:01.794Z,1032.49
2019-01-04T09:48:01.795Z,1032.50
2019-01-04T09:49:01.793Z,1032.50
2019-01-04T09:50:01.771Z,1032.52
2019-01-04T09:51:01.778Z,1032.52
2019-01-04T09:52:01.769Z,1032.49
2019-01-04T09:53:01.760Z,1032.43
2019-01-04T09:54:01.966Z,1032.40
2019-01-04T09:55:01.771Z,1032.38
2019-01-04T09:56:01.765Z,1032.35
2019-01-04T09:57:01.748Z,1032.32
2019-01-04T09:58:01.936Z,1032.29
2019-01-04T09:59:01.730Z,1032.34
2019-01-04T10:00:01.720Z,1032.37
2019-01-04T10:01:01.723Z,1032.33
2019-01-04T10:02:01.717Z,1032.28
2019-01-04T10:03:01.705Z,1032.31
2019-01-04T10:04:01.705Z,1032.29
2019-01-04T10:05:01.688Z,1032.30
2019-01-04T10:06:01.708Z,1032.29
2019-01-04T10:07:01.708Z,1032.28
2019-01-04T10:08:01.675Z,1032.31
2019-01-04T10:09:01.677Z,1032.30
2019-01-04T10:10:01.657Z,1032.32
2019-01-04T10:11:01.651Z,1032.25
2019-01-04T10:12:01.649Z,1032.26
2019-01-04T10:13:01.656Z,1032.24
2019-01-04T10:14:01.667Z,1032.22
2019-01-04T10:15:01.633Z,1032.24
2019-01-04T10:16:01.650Z,1032.23
2019-01-04T10:17:01.631Z,1032.22
2019-01-04T10:18:01.630Z,1032.16
2019-01-04T10:19:01.624Z,1032.13
2019-01-04T10:20:01.616Z,1032.12
2019-01-04T10:21:01.596Z,1032.05
2019-01-04T10:22:01.600Z,1032.11
2019-01-04T10:23:01.599Z,1032.12
2019-01-04T10:24:01.794Z,1032.09
2019-01-04T10:25:01.774Z,1032.05
2019-01-04T10:26:01.594Z,1032.05
2019-01-04T10:27:01.561Z,1032.07
2019-01-04T10:28:01.566Z,1032.05
2019-01-04T10:29:01.558Z,1031.99
2019-01-04T10:30:01.549Z,1032.02
2019-01-04T10:31:01.756Z,1031.97
2019-01-04T10:32:01.540Z,1031.94
2019-01-04T10:33:01.732Z,1031.89
2019-01-04T10:34:01.541Z,1031.84
2019-01-04T10:35:01.513Z,1031.83
2019-01-04T10:36:01.517Z,1031.81
2019-01-04T10:37:01.499Z,1031.85
2019-01-04T10:38:01.499Z,1031.83
2019-01-04T10:39:01.488Z,1031.85
2019-01-04T10:40:01.481Z,1031.81
2019-01-04T10:41:01.493Z,1031.83
2019-01-04T10:42:01.475Z,1031.78
2019-01-04T10:43:01.484Z,1031.72
2019-01-04T10:44:01.463Z,1031.75
2019-01-04T10:45:01.479Z,1031.74
2019-01-04T10:46:01.455Z,1031.70
2019-01-04T10:47:01.452Z,1031.69
2019-01-04T10:48:01.443Z,1031.69
2019-01-04T10:49:01.492Z,1031.61
2019-01-04T10:50:01.437Z,1031.61
2019-01-04T10:51:01.436Z,1031.58
2019-01-04T10:52:01.431Z,1031.59
2019-01-04T10:53:01.414Z,1031.54
2019-01-04T10:54:01.612Z,1031.55
2019-01-04T10:55:01.402Z,1031.54
2019-01-04T10:56:01.429Z,1031.51
2019-01-04T10:57:01.405Z,1031.53
2019-01-04T10:58:01.395Z,1031.50
2019-01-04T10:59:01.579Z,1031.52
2019-01-04T11:00:01.394Z,1031.54
2019-01-04T11:01:01.363Z,1031.51
2019-01-04T11:02:01.557Z,1031.52
2019-01-04T11:03:01.380Z,1031.48
2019-01-04T11:04:01.356Z,1031.47
2019-01-04T11:05:01.338Z,1031.45
2019-01-04T11:06:01.344Z,1031.41
2019-01-04T11:07:01.335Z,1031.42
2019-01-04T11:08:01.320Z,1031.43
2019-01-04T11:09:01.339Z,1031.39
2019-01-04T11:10:01.329Z,1031.34
2019-01-04T11:11:01.306Z,1031.36
2019-01-04T11:12:01.299Z,1031.36
2019-01-04T11:13:01.297Z,1031.37
2019-01-04T11:14:01.291Z,1031.39
2019-01-04T11:15:01.288Z,1031.39
2019-01-04T11:16:01.272Z,1031.42
2019-01-04T11:17:01.285Z,1031.41
2019-01-04T11:18:01.292Z,1031.37
2019-01-04T11:19:01.272Z,1031.33
2019-01-04T11:20:01.263Z,1031.32
2019-01-04T11:21:01.263Z,1031.30
2019-01-04T11:22:01.237Z,1031.27
2019-01-04T11:23:01.237Z,1031.26
2019-01-04T11:24:01.260Z,1031.27
2019-01-04T11:25:01.226Z,1031.23
2019-01-04T11:26:01.233Z,1031.26
2019-01-04T11:27:01.227Z,1031.25
2019-01-04T11:28:01.221Z,1031.26
2019-01-04T11:29:01.213Z,1031.19
2019-01-04T11:30:01.191Z,1031.20
2019-01-04T11:31:01.183Z,1031.19
2019-01-04T11:32:01.211Z,1031.22
2019-01-04T11:33:01.181Z,1031.20
2019-01-04T11:34:01.184Z,1031.23
2019-01-04T11:35:01.170Z,1031.19
2019-01-04T11:36:01.189Z,1031.20
2019-01-04T11:37:01.149Z,1031.17
2019-01-04T11:38:01.162Z,1031.25
2019-01-04T11:39:01.149Z,1031.22
2019-01-04T11:40:01.141Z,1031.23
2019-01-04T11:41:01.129Z,1031.24
2019-01-04T11:42:01.119Z,1031.24
2019-01-04T11:43:01.113Z,1031.22
2019-01-04T11:44:01.111Z,1031.22
2019-01-04T11:45:01.104Z,1031.20
2019-01-04T11:46:01.100Z,1031.20
2019-01-04T11:47:01.089Z,1031.19
2019-01-04T11:48:01.088Z,1031.13
2019-01-04T11:49:01.079Z,1031.23
2019-01-04T11:50:01.076Z,1031.19
2019-01-04T11:51:01.279Z,1031.15
2019-01-04T11:52:01.063Z,1031.10
2019-01-04T11:53:01.069Z,1031.10
2019-01-04T11:54:01.062Z,1031.05
2019-01-04T11:55:01.042Z,1031.01
2019-01-04T11:56:01.057Z,1031.04
2019-01-04T11:57:01.033Z,1031.01
2019-01-04T11:58:01.026Z,1031.01
2019-01-04T11:59:01.022Z,1031.01
2019-01-04T12:00:01.023Z,1031.05
2019-01-04T12:01:01.015Z,1031.06
2019-01-04T12:02:01.014Z,1031.03
2019-01-04T12:03:01.009Z,1031.02
2019-01-04T12:04:02.139Z,1031.02
2019-01-04T12:05:01.013Z,1030.95